Time;durP1;ratioP1;P1;durP2;ratioP2;P2;SDS_P1;SDS_P2;PMS_P1;PMS_P2;Temp;Humidity;BMP_temperature;BMP_pressure;BME280_temperature;BME280_humidity;BME280_pressure;Samples;Min_cycle;Max_cycle;Signal;HPM_P1;HPM_P2
2023/09/27 00:00:19;;;;;;;54.25;49.85;;;12.90;99.90;;;;;;4904852;29;20054;-83
2023/09/27 00:02:45;;;;;;;56.58;51.60;;;12.90;99.90;;;;;;4938155;29;20040;-83
2023/09/27 00:05:12;;;;;;;57.83;53.10;;;12.90;99.90;;;;;;4922335;29;20497;-83
2023/09/27 07:24:45;;;;;;;94.28;85.72;;;13.80;99.90;;;;;;4894772;29;20301;-81
2023/09/27 07:27:38;;;;;;;148.15;117.65;;;13.90;99.90;;;;;;4862363;29;20045;-81
2023/09/27 07:30:52;;;;;;;88.40;79.78;;;14.00;99.90;;;;;;4940530;29;20126;-81
2023/09/27 07:41:10;;;;;;;81.32;74.10;;;14.30;99.90;;;;;;4922873;29;20418;-81
2023/09/27 07:44:55;;;;;;;89.65;80.55;;;14.30;99.90;;;;;;4925837;29;20067;-80
2023/09/27 08:16:58;;;;;;;69.38;63.78;;;15.00;99.90;;;;;;4833800;29;20043;-79
2023/09/27 09:12:25;;;;;;;46.95;42.95;;;18.20;99.90;;;;;;4972540;28;20070;-84
2023/09/27 09:19:19;;;;;;;;;;;;;;;;;;;;;
2023/09/27 09:32:08;;;;;;;34.15;31.25;;;19.30;99.90;;;;;;5079162;23;20051;-81
2023/09/27 09:39:33;;;;;;;;;;;;;;;;;;;;;
2023/09/27 09:49:18;;;;;;;27.38;25.17;;;19.80;99.90;;;;;;4850849;29;20040;-82
2023/09/27 09:55:21;;;;;;;;;;;;;;;;;;;;;
2023/09/27 09:58:38;;;;;;;;;;;;;;;;;;;;;
2023/09/27 10:01:37;;;;;;;28.13;25.67;;;20.80;99.90;;;;;;4895856;29;20218;-82
2023/09/27 10:04:24;;;;;;;29.63;26.90;;;20.90;99.90;;;;;;4882282;29;20052;-83
2023/09/27 10:35:49;;;;;;;28.02;25.60;;;21.70;99.90;;;;;;4975503;28;20049;-80
2023/09/27 10:39:02;;;;;;;28.23;25.90;;;21.80;99.90;;;;;;4932379;29;20103;-80
2023/09/27 10:41:38;;;;;;;25.83;23.40;;;21.90;99.90;;;;;;4866681;29;20101;-79
2023/09/27 10:47:49;;;;;;;25.15;23.15;;;22.60;99.90;;;;;;4869448;29;20428;-80
2023/09/27 10:54:55;;;;;;;23.45;21.38;;;23.00;99.90;;;;;;4731141;30;20048;-81
2023/09/27 11:13:17;;;;;;;29.30;26.88;;;22.70;99.90;;;;;;4798754;29;20077;-79
2023/09/27 13:28:22;;;;;;;12.15;10.95;;;26.80;99.90;;;;;;4961746;23;20056;-82
2023/09/27 13:31:32;;;;;;;11.07;10.07;;;26.30;99.90;;;;;;4922760;29;20095;-83
2023/09/27 13:43:35;;;;;;;;;;;;;;;;;;;;;
2023/09/27 13:46:57;;;;;;;;;;;25.50;99.90;;;;;;4723276;30;20524;-81
2023/09/27 13:49:53;;;;;;;10.80;7.80;;;25.40;99.90;;;;;;4712651;30;19914;-82
2023/09/27 13:54:12;;;;;;;;;;;;;;;;;;;;;
2023/09/27 13:57:04;;;;;;;8.02;6.60;;;24.70;99.90;;;;;;4828590;29;20051;-84
2023/09/27 15:51:20;;;;;;;13.93;12.57;;;20.70;99.90;;;;;;4948373;28;20421;-81
2023/09/27 15:53:55;;;;;;;13.43;12.23;;;20.60;99.90;;;;;;4915059;29;20040;-81
2023/09/27 15:56:53;;;;;;;14.82;13.27;;;20.60;99.90;;;;;;4920138;28;20043;-81
2023/09/27 16:03:29;;;;;;;14.13;12.75;;;20.50;99.90;;;;;;4976551;23;20196;-88
2023/09/27 16:05:56;;;;;;;14.05;12.75;;;20.40;99.90;;;;;;4953683;28;20067;-89
2023/09/27 16:08:23;;;;;;;14.75;13.32;;;20.40;99.90;;;;;;4939253;28;20046;-88
2023/09/27 16:10:50;;;;;;;16.35;12.77;;;20.30;99.90;;;;;;4956056;28;20050;-87
2023/09/27 16:13:16;;;;;;;13.88;12.57;;;20.20;99.90;;;;;;4931999;29;20039;-86
2023/09/27 16:15:43;;;;;;;14.15;12.75;;;20.10;99.90;;;;;;4938124;29;20035;-85
2023/09/27 16:18:09;;;;;;;13.88;12.57;;;20.00;99.90;;;;;;4938913;29;20050;-88
2023/09/27 16:20:34;;;;;;;14.35;12.93;;;20.00;99.90;;;;;;4939592;29;20036;-86
2023/09/27 16:23:00;;;;;;;14.85;13.15;;;19.90;99.90;;;;;;4940240;29;20082;-87
2023/09/27 16:25:25;;;;;;;14.18;12.82;;;19.80;99.90;;;;;;4930870;28;20060;-89
2023/09/27 16:27:51;;;;;;;14.90;13.45;;;19.70;99.90;;;;;;4958773;28;20188;-89
2023/09/27 16:30:17;;;;;;;15.88;14.30;;;19.60;99.90;;;;;;4958611;28;20034;-88
2023/09/27 16:32:42;;;;;;;15.07;13.70;;;19.60;99.90;;;;;;4958549;28;20085;-88
2023/09/27 16:35:08;;;;;;;15.65;14.38;;;19.50;99.90;;;;;;4942663;28;20035;-89
2023/09/27 16:37:34;;;;;;;16.40;14.85;;;19.40;99.90;;;;;;4958578;28;20039;-89
2023/09/27 16:39:59;;;;;;;16.27;14.75;;;19.40;99.90;;;;;;4941528;28;20428;-90
2023/09/27 16:42:25;;;;;;;16.40;14.77;;;19.30;99.90;;;;;;4946051;28;20042;-88
2023/09/27 16:44:50;;;;;;;16.70;15.20;;;19.30;99.90;;;;;;4958282;28;20409;-90
2023/09/27 16:47:16;;;;;;;17.48;15.90;;;19.20;99.90;;;;;;4942311;28;20524;-87
2023/09/27 16:49:42;;;;;;;16.73;15.15;;;19.20;99.90;;;;;;4958469;28;20524;-86
2023/09/27 16:52:08;;;;;;;16.77;15.40;;;19.20;99.90;;;;;;4941797;28;20075;-86
2023/09/27 16:54:33;;;;;;;18.50;16.58;;;19.10;99.90;;;;;;4904574;29;20655;-87
2023/09/27 16:56:59;;;;;;;18.23;16.63;;;19.10;99.90;;;;;;4919970;29;20043;-88
2023/09/27 16:59:25;;;;;;;18.70;17.10;;;19.00;99.90;;;;;;4922989;29;20035;-87
2023/09/27 17:01:50;;;;;;;18.42;16.75;;;18.90;99.90;;;;;;4923351;29;20146;-87
2023/09/27 17:04:16;;;;;;;18.88;17.27;;;18.80;99.90;;;;;;4930614;29;20059;-86
2023/09/27 17:06:44;;;;;;;19.63;18.02;;;18.80;99.90;;;;;;4924312;28;20062;-84
2023/09/27 17:09:09;;;;;;;20.02;18.20;;;18.80;99.90;;;;;;4942940;29;20047;-84
2023/09/27 17:11:35;;;;;;;21.08;19.23;;;18.70;99.90;;;;;;4937701;28;20047;-84
2023/09/27 17:14:01;;;;;;;21.00;19.17;;;18.70;99.90;;;;;;4977689;28;20577;-84
2023/09/27 17:16:27;;;;;;;21.17;19.30;;;18.60;99.90;;;;;;4946235;29;20039;-84
2023/09/27 17:18:53;;;;;;;22.42;20.52;;;18.60;99.90;;;;;;4921483;29;20035;-84
2023/09/27 17:21:20;;;;;;;22.58;20.67;;;18.50;99.90;;;;;;4929792;29;20039;-84
2023/09/27 17:23:45;;;;;;;23.27;21.20;;;18.50;99.90;;;;;;4929613;29;20050;-84
2023/09/27 17:26:11;;;;;;;24.42;22.30;;;18.50;99.90;;;;;;4932915;28;20445;-84
2023/09/27 17:28:37;;;;;;;23.98;21.88;;;18.40;99.90;;;;;;4939898;28;20143;-84
2023/09/27 17:31:03;;;;;;;23.92;21.88;;;18.30;99.90;;;;;;4961145;28;20573;-84
2023/09/27 17:33:28;;;;;;;24.73;22.63;;;18.30;99.90;;;;;;4933666;29;20090;-84
2023/09/27 17:36:02;;;;;;;25.25;23.05;;;18.20;99.90;;;;;;4917964;28;20050;-84
2023/09/27 17:38:27;;;;;;;26.98;24.77;;;18.20;99.90;;;;;;4956344;28;20035;-85
2023/09/27 17:40:54;;;;;;;28.75;26.20;;;18.10;99.90;;;;;;4925100;29;20040;-85
2023/09/27 17:43:21;;;;;;;28.83;26.20;;;18.10;99.90;;;;;;4939006;29;20035;-84
2023/09/27 17:45:49;;;;;;;29.48;27.17;;;18.10;99.90;;;;;;4951915;29;20032;-84
2023/09/27 17:48:15;;;;;;;28.92;26.63;;;18.00;99.90;;;;;;4921266;29;20043;-84
2023/09/27 17:50:40;;;;;;;29.55;27.15;;;18.00;99.90;;;;;;4920898;29;20429;-84
2023/09/27 17:53:06;;;;;;;30.70;28.15;;;17.90;99.90;;;;;;4912937;29;20043;-87
2023/09/27 17:55:31;;;;;;;31.60;29.20;;;17.90;99.90;;;;;;4920492;29;20043;-85
2023/09/27 17:57:57;;;;;;;30.23;27.83;;;17.80;99.90;;;;;;4921197;29;20039;-86
2023/09/27 18:00:23;;;;;;;32.45;29.77;;;17.80;99.90;;;;;;4920184;29;20045;-84
2023/09/27 18:02:49;;;;;;;31.90;29.48;;;17.70;99.90;;;;;;4928271;29;20042;-84
2023/09/27 18:05:15;;;;;;;34.10;31.30;;;17.70;99.90;;;;;;4936399;29;20513;-84
2023/09/27 18:07:40;;;;;;;34.05;31.27;;;17.70;99.90;;;;;;4920468;29;20053;-84
2023/09/27 18:10:07;;;;;;;34.67;31.83;;;17.70;99.90;;;;;;4936192;28;20047;-84
2023/09/27 18:12:32;;;;;;;33.75;31.02;;;17.60;99.90;;;;;;4967884;28;20540;-84
2023/09/27 18:14:58;;;;;;;34.38;31.73;;;17.60;99.90;;;;;;4914870;28;20039;-84
2023/09/27 18:17:24;;;;;;;36.40;33.38;;;17.50;99.90;;;;;;4929116;29;20489;-84
2023/09/27 18:19:51;;;;;;;38.38;35.33;;;17.40;99.90;;;;;;4924370;29;20037;-84
2023/09/27 18:22:16;;;;;;;36.03;33.10;;;17.40;99.90;;;;;;4921140;29;20043;-84
2023/09/27 18:24:42;;;;;;;37.80;34.75;;;17.40;99.90;;;;;;4928232;29;20035;-84
2023/09/27 18:27:08;;;;;;;35.97;33.05;;;17.40;99.90;;;;;;4913014;29;20131;-84
2023/09/27 18:29:33;;;;;;;37.72;34.53;;;17.30;99.90;;;;;;4927588;29;20039;-84
2023/09/27 18:31:59;;;;;;;39.22;35.92;;;17.30;99.90;;;;;;4919733;28;20039;-84
2023/09/27 18:34:25;;;;;;;39.33;35.95;;;17.20;99.90;;;;;;4926064;29;20095;-84
2023/09/27 18:36:50;;;;;;;39.20;36.17;;;17.20;99.90;;;;;;4929305;29;20086;-84
2023/09/27 18:39:16;;;;;;;38.88;35.78;;;17.20;99.90;;;;;;4935053;29;20039;-84
2023/09/27 18:41:43;;;;;;;43.65;40.25;;;17.30;99.90;;;;;;4932979;28;20054;-85
2023/09/27 18:44:09;;;;;;;43.33;39.97;;;17.30;99.90;;;;;;4928563;29;20130;-85
2023/09/27 18:46:35;;;;;;;45.55;41.90;;;17.30;99.90;;;;;;4927131;29;20098;-84
2023/09/27 18:49:00;;;;;;;44.92;41.03;;;17.30;99.90;;;;;;4918672;29;20431;-84
2023/09/27 18:51:26;;;;;;;45.67;42.05;;;17.30;99.90;;;;;;4926689;29;20040;-84
2023/09/27 18:53:52;;;;;;;45.60;41.90;;;17.20;99.90;;;;;;4921274;29;20039;-84
2023/09/27 18:56:21;;;;;;;45.65;42.05;;;17.20;99.90;;;;;;4944320;29;20043;-84
2023/09/27 18:58:47;;;;;;;48.63;44.85;;;17.20;99.90;;;;;;4927958;29;20042;-84
2023/09/27 19:01:14;;;;;;;46.58;42.95;;;17.20;99.90;;;;;;4926291;29;20035;-84
2023/09/27 19:03:41;;;;;;;47.75;43.95;;;17.20;99.90;;;;;;4936560;29;20073;-84
2023/09/27 19:06:10;;;;;;;46.53;42.83;;;17.20;99.90;;;;;;4934976;29;20045;-85
2023/09/27 19:08:36;;;;;;;49.78;45.88;;;17.20;99.90;;;;;;4924876;29;20414;-84
2023/09/27 19:11:01;;;;;;;46.35;42.65;;;17.20;99.90;;;;;;4933410;29;20044;-84
2023/09/27 19:13:27;;;;;;;47.55;43.92;;;17.20;99.90;;;;;;4918863;29;20036;-84
2023/09/27 19:15:54;;;;;;;46.90;43.17;;;17.20;99.90;;;;;;4919576;29;20165;-84
2023/09/27 19:18:21;;;;;;;46.83;43.10;;;17.20;99.90;;;;;;4936424;29;20525;-84
2023/09/27 19:20:46;;;;;;;46.65;42.85;;;17.20;99.90;;;;;;4926658;29;20050;-84
2023/09/27 19:23:12;;;;;;;43.05;39.67;;;17.20;99.90;;;;;;4911402;29;20613;-84
2023/09/27 19:25:38;;;;;;;45.80;42.20;;;17.20;99.90;;;;;;4930812;29;20462;-84
2023/09/27 19:28:03;;;;;;;45.90;42.17;;;17.20;99.90;;;;;;4931187;29;20087;-83
2023/09/27 19:30:32;;;;;;;47.15;43.30;;;17.20;99.90;;;;;;4940354;29;20043;-84
2023/09/27 19:32:58;;;;;;;47.00;43.35;;;17.20;99.90;;;;;;4930160;29;20042;-84
2023/09/27 19:35:24;;;;;;;47.15;43.55;;;17.20;99.90;;;;;;4918710;29;20122;-83
2023/09/27 19:37:50;;;;;;;46.28;42.67;;;17.10;99.90;;;;;;4926014;29;20042;-84
2023/09/27 19:40:16;;;;;;;48.95;45.13;;;17.10;99.90;;;;;;4937638;29;20035;-84
2023/09/27 19:42:42;;;;;;;46.83;43.10;;;17.10;99.90;;;;;;4919573;29;20409;-86
2023/09/27 19:45:08;;;;;;;46.55;42.58;;;17.10;99.90;;;;;;4919438;29;20051;-85
2023/09/27 19:47:35;;;;;;;44.67;41.08;;;17.00;99.90;;;;;;4923017;29;20070;-84
2023/09/27 19:50:01;;;;;;;46.13;42.40;;;17.00;99.90;;;;;;4928073;29;20051;-85
2023/09/27 19:52:26;;;;;;;45.78;42.15;;;17.00;99.90;;;;;;4929857;29;20051;-85
2023/09/27 19:54:52;;;;;;;48.13;44.22;;;17.00;99.90;;;;;;4923259;29;20055;-85
2023/09/27 19:57:17;;;;;;;44.90;41.35;;;17.00;99.90;;;;;;4928176;29;20039;-84
2023/09/27 19:59:45;;;;;;;48.17;43.83;;;17.00;99.90;;;;;;4930490;29;20131;-84
2023/09/27 20:02:11;;;;;;;48.08;44.17;;;17.00;99.90;;;;;;4922890;29;20050;-85
2023/09/27 20:04:37;;;;;;;48.03;44.25;;;16.90;99.90;;;;;;4938193;29;20409;-84
2023/09/27 20:07:02;;;;;;;48.85;44.85;;;16.90;99.90;;;;;;4925889;29;20039;-85
2023/09/27 20:09:28;;;;;;;47.75;43.88;;;16.90;99.90;;;;;;4922882;29;20050;-84
2023/09/27 20:11:53;;;;;;;45.67;41.97;;;16.80;99.90;;;;;;4923294;28;20454;-84
2023/09/27 20:14:19;;;;;;;50.17;46.03;;;16.80;99.90;;;;;;4940057;29;20039;-84
2023/09/27 20:16:44;;;;;;;48.13;44.22;;;16.80;99.90;;;;;;4938558;29;20117;-84
2023/09/27 20:19:10;;;;;;;49.05;45.15;;;16.80;99.90;;;;;;4922310;29;20043;-85
2023/09/27 20:21:36;;;;;;;50.25;46.35;;;16.70;99.90;;;;;;4919457;29;20039;-84
2023/09/27 20:24:01;;;;;;;47.60;43.88;;;16.70;99.90;;;;;;4943444;29;20505;-84
2023/09/27 20:26:29;;;;;;;48.03;44.33;;;16.70;99.90;;;;;;4921986;29;20047;-84
2023/09/27 20:28:55;;;;;;;50.47;46.28;;;16.70;99.90;;;;;;4944091;29;20106;-84
2023/09/27 20:31:20;;;;;;;48.20;44.22;;;16.70;99.90;;;;;;4930815;29;20043;-84
2023/09/27 20:33:46;;;;;;;48.38;44.35;;;16.60;99.90;;;;;;4941724;28;20031;-85
2023/09/27 20:36:12;;;;;;;47.28;43.65;;;16.60;99.90;;;;;;4920118;29;20069;-85
2023/09/27 20:38:38;;;;;;;47.53;43.72;;;16.70;99.90;;;;;;4907806;29;20122;-85
2023/09/27 20:41:04;;;;;;;48.63;44.78;;;16.70;99.90;;;;;;4945271;29;20126;-85
2023/09/27 20:43:29;;;;;;;45.97;42.25;;;16.70;99.90;;;;;;4944633;28;20130;-84
2023/09/27 20:45:55;;;;;;;47.60;43.90;;;16.70;99.90;;;;;;4904284;29;20523;-84
2023/09/27 20:48:20;;;;;;;46.30;42.63;;;16.70;99.90;;;;;;4904885;29;20105;-85
2023/09/27 20:50:46;;;;;;;47.45;43.72;;;16.70;99.90;;;;;;4929953;29;20137;-84
2023/09/27 20:53:12;;;;;;;47.15;43.35;;;16.70;99.90;;;;;;4919695;29;20043;-84
2023/09/27 20:55:37;;;;;;;47.05;43.15;;;16.70;99.90;;;;;;4939091;29;20046;-84
2023/09/27 20:58:03;;;;;;;44.65;40.95;;;16.70;99.90;;;;;;4938325;29;20089;-84
2023/09/27 21:00:29;;;;;;;44.33;40.83;;;16.70;99.90;;;;;;4914040;29;20032;-84
2023/09/27 21:02:55;;;;;;;44.50;41.05;;;16.70;99.90;;;;;;4930313;29;20071;-85
2023/09/27 21:05:21;;;;;;;45.85;42.17;;;16.70;99.90;;;;;;4906057;29;20040;-85
2023/09/27 21:07:48;;;;;;;44.58;41.10;;;16.70;99.90;;;;;;4904163;29;20130;-84
2023/09/27 21:10:14;;;;;;;42.65;39.20;;;16.70;99.90;;;;;;4921939;29;20039;-85
2023/09/27 21:12:40;;;;;;;42.80;39.35;;;16.70;99.90;;;;;;4933880;29;20039;-85
2023/09/27 21:15:06;;;;;;;42.90;39.60;;;16.80;99.90;;;;;;4918680;29;20070;-84
2023/09/27 21:17:32;;;;;;;41.08;37.88;;;16.80;99.90;;;;;;4938929;29;20075;-84
2023/09/27 21:19:58;;;;;;;41.80;38.55;;;16.80;99.90;;;;;;4938329;29;20525;-84
2023/09/27 21:22:23;;;;;;;42.42;39.08;;;16.70;99.90;;;;;;4925240;29;20051;-84
2023/09/27 21:24:49;;;;;;;41.25;37.95;;;16.80;99.90;;;;;;4945371;29;20039;-85
2023/09/27 21:27:14;;;;;;;38.45;35.55;;;16.70;99.90;;;;;;4922512;29;20043;-84
2023/09/27 21:29:41;;;;;;;38.78;35.67;;;16.70;99.90;;;;;;4909469;29;20160;-85
2023/09/27 21:32:06;;;;;;;38.40;35.50;;;16.80;99.90;;;;;;4943026;28;20043;-84
2023/09/27 21:34:32;;;;;;;36.30;33.47;;;16.70;99.90;;;;;;4928838;29;20039;-84
2023/09/27 21:36:57;;;;;;;37.55;34.80;;;16.80;99.90;;;;;;4903604;29;20064;-86
2023/09/27 21:39:23;;;;;;;36.80;34.00;;;16.80;99.90;;;;;;4903464;29;20043;-85
2023/09/27 21:41:48;;;;;;;36.70;33.75;;;16.80;99.90;;;;;;4913775;28;20070;-85
2023/09/27 21:44:22;;;;;;;36.67;33.78;;;16.80;99.90;;;;;;4927021;29;20498;-85
2023/09/27 21:46:50;;;;;;;34.20;31.60;;;16.80;99.90;;;;;;4922170;29;20046;-85
2023/09/27 21:49:19;;;;;;;33.10;30.50;;;16.80;99.90;;;;;;4938012;29;20568;-84
2023/09/27 21:51:47;;;;;;;34.13;31.30;;;16.90;99.90;;;;;;4922225;28;20433;-85
2023/09/27 21:54:14;;;;;;;33.08;30.58;;;16.90;99.90;;;;;;4918301;29;20032;-85
2023/09/27 21:56:39;;;;;;;33.45;30.85;;;17.00;99.90;;;;;;4913973;29;20035;-85
2023/09/27 21:59:06;;;;;;;32.95;30.38;;;17.00;99.90;;;;;;4921522;29;20035;-85
2023/09/27 22:01:31;;;;;;;33.55;31.05;;;17.00;99.90;;;;;;4919069;29;20035;-85
2023/09/27 23:22:56;;;;;;;17.02;15.52;;;17.40;99.90;;;;;;5721961;23;20505;-79
2023/09/27 23:28:16;;;;;;;17.35;15.75;;;17.40;99.90;;;;;;4971212;28;20047;-79
2023/09/27 23:30:49;;;;;;;17.38;15.98;;;17.30;99.90;;;;;;4939831;29;20046;-78
2023/09/27 23:33:16;;;;;;;17.25;15.60;;;17.40;99.90;;;;;;4945207;29;20050;-78
2023/09/27 23:35:42;;;;;;;18.73;17.10;;;17.30;99.90;;;;;;4956138;29;20035;-78
2023/09/27 23:41:00;;;;;;;17.45;16.15;;;17.30;99.90;;;;;;4940302;28;20047;-78
2023/09/27 23:43:39;;;;;;;17.20;15.85;;;17.40;99.90;;;;;;4974851;28;20421;-78
2023/09/27 23:46:13;;;;;;;16.60;15.00;;;17.30;99.90;;;;;;4947461;28;20089;-78
2023/09/27 23:48:39;;;;;;;17.17;15.75;;;17.30;99.90;;;;;;4974089;28;20034;-78
2023/09/27 23:51:05;;;;;;;16.38;15.07;;;17.30;99.90;;;;;;4970690;28;20043;-78
2023/09/27 23:53:31;;;;;;;16.83;15.43;;;17.30;99.90;;;;;;4958947;28;20050;-78
2023/09/27 23:55:56;;;;;;;15.80;14.63;;;17.20;99.90;;;;;;4974418;28;20409;-78
2023/09/27 23:58:23;;;;;;;16.58;15.23;;;17.20;99.90;;;;;;4956656;28;20067;-78
